createdAt,value
2023-04-10T00:01:06.041Z,6.62
2023-04-10T00:06:15.812Z,6.5
2023-04-10T00:11:25.557Z,6.75
2023-04-10T00:16:35.412Z,6.75
2023-04-10T00:21:43.817Z,6.75
2023-04-10T00:26:52.284Z,6.81
2023-04-10T00:32:03.424Z,6.75
2023-04-10T00:37:12.439Z,6.75
2023-04-10T00:42:22.184Z,6.69
2023-04-10T00:47:32.048Z,6.62
2023-04-10T00:52:41.101Z,6.62
2023-04-10T00:57:50.202Z,6.69
2023-04-10T01:02:59.544Z,6.5
2023-04-10T01:08:11.641Z,6.56
2023-04-10T01:13:21.412Z,6.5
2023-04-10T01:18:31.158Z,6.5
2023-04-10T01:23:41.584Z,6.38
2023-04-10T01:28:51.335Z,6.25
2023-04-10T01:33:59.834Z,6.25
2023-04-10T01:39:08.280Z,6.19
2023-04-10T01:44:17.400Z,6.25
2023-04-10T01:49:27.177Z,6.38
2023-04-10T01:54:36.920Z,6.38
2023-04-10T01:59:46.055Z,6.38
2023-04-10T02:04:54.559Z,6.12
2023-04-10T02:10:03.001Z,6.12
2023-04-10T02:15:14.055Z,6.19
2023-04-10T02:20:23.161Z,6.12
2023-04-10T02:25:31.668Z,6.06
2023-04-10T02:30:40.142Z,6.19
2023-04-10T02:35:49.288Z,6.38
2023-04-10T02:40:58.378Z,6.31
2023-04-10T02:46:07.478Z,6.19
2023-04-10T02:51:17.242Z,6.06
2023-04-10T02:56:26.997Z,6
2023-04-10T03:01:36.237Z,6.06
2023-04-10T03:06:45.895Z,6
2023-04-10T03:13:28.955Z,6.12
2023-04-10T03:20:56.307Z,6.12
2023-04-10T03:21:02.874Z,6.12
2023-04-10T03:37:25.438Z,6.19
2023-04-10T03:37:31.643Z,6.19
2023-04-10T03:46:26.136Z,6.06
2023-04-10T03:54:46.212Z,6
2023-04-10T04:01:36.865Z,5.56
2023-04-10T04:08:25.720Z,5.5
2023-04-10T04:14:25.412Z,5.38
2023-04-10T04:19:35.832Z,5.38
2023-04-10T04:24:45.573Z,5.31
2023-04-10T04:29:54.031Z,5.19
2023-04-10T04:35:04.453Z,5.12
2023-04-10T04:40:12.923Z,5
2023-04-10T04:45:22.063Z,4.88
2023-04-10T04:50:31.823Z,4.81
2023-04-10T04:55:41.558Z,4.81
2023-04-10T05:00:51.387Z,4.88
2023-04-10T05:06:01.078Z,4.88
2023-04-10T05:11:10.180Z,4.69
2023-04-10T05:16:20.142Z,5.25
2023-04-10T05:21:29.078Z,5.25
2023-04-10T05:26:38.835Z,5.62
2023-04-10T05:31:47.944Z,5.62
2023-04-10T05:36:59.339Z,5.88
2023-04-10T05:42:06.898Z,6.25
2023-04-10T05:47:16.624Z,6.38
2023-04-10T05:52:25.718Z,6.62
2023-04-10T05:57:35.503Z,6.56
2023-04-10T06:02:45.625Z,6.44
2023-04-10T06:07:58.147Z,6.88
2023-04-10T06:13:03.501Z,7.38
2023-04-10T06:18:12.604Z,7.44
2023-04-10T06:23:21.734Z,7.44
2023-04-10T06:28:32.119Z,7.81
2023-04-10T06:33:42.540Z,8.56
2023-04-10T06:38:51.301Z,8.88
2023-04-10T06:44:03.653Z,9.31
2023-04-10T06:49:10.539Z,9.56
2023-04-10T06:54:19.664Z,9.75
2023-04-10T06:59:29.407Z,10.19
2023-04-10T07:04:39.179Z,10.38
2023-04-10T07:09:48.925Z,10.75
2023-04-10T07:14:58.061Z,11
2023-04-10T07:20:07.215Z,11.38
2023-04-10T07:25:15.655Z,11.69
2023-04-10T07:30:24.766Z,11.94
2023-04-10T07:35:34.600Z,12.06
2023-04-10T07:40:43.651Z,12.44
2023-04-10T07:45:53.476Z,12.5
2023-04-10T07:51:03.144Z,12.94
2023-04-10T07:56:12.299Z,12.94
2023-04-10T08:01:22.685Z,13.19
2023-04-10T08:06:31.159Z,13.31
2023-04-10T08:11:40.291Z,13.44
2023-04-10T08:16:49.516Z,13.44
2023-04-10T08:21:59.172Z,13.38
2023-04-10T08:27:08.285Z,13.44
2023-04-10T08:32:17.407Z,13.56
2023-04-10T08:37:28.435Z,13.69
2023-04-10T08:42:38.215Z,13.88
2023-04-10T08:47:48.037Z,14
2023-04-10T08:52:57.748Z,14.31
2023-04-10T08:58:08.118Z,14.56
2023-04-10T09:03:18.173Z,14.5
2023-04-10T09:08:26.357Z,14.69
2023-04-10T09:13:35.478Z,14.75
2023-04-10T09:18:44.612Z,15.06
2023-04-10T09:23:54.525Z,14.81
2023-04-10T09:29:02.852Z,15
2023-04-10T09:34:13.292Z,15.06
2023-04-10T09:39:22.392Z,15.25
2023-04-10T09:44:30.834Z,15.44
2023-04-10T09:49:40.712Z,15.81
2023-04-10T09:54:49.098Z,15.81
2023-04-10T09:59:57.588Z,16
2023-04-10T10:05:07.077Z,16.06
2023-04-10T10:10:16.470Z,16.19
2023-04-10T10:15:25.613Z,16.06
2023-04-10T10:20:36.767Z,16.12
2023-04-10T10:25:45.090Z,16.31
2023-04-10T10:30:55.499Z,16.69
2023-04-10T10:36:07.186Z,16.44
2023-04-10T10:41:16.909Z,16.25
2023-04-10T10:46:25.385Z,16.31
2023-04-10T10:51:35.163Z,16.44
2023-04-10T10:56:44.939Z,16.44
2023-04-10T11:01:54.233Z,16.62
2023-04-10T11:07:03.805Z,16.69
2023-04-10T11:12:13.576Z,16.75
2023-04-10T11:17:25.947Z,17
2023-04-10T11:22:35.646Z,17.06
2023-04-10T11:27:44.799Z,17.25
2023-04-10T11:32:55.236Z,17.44
2023-04-10T11:38:06.201Z,18.06
2023-04-10T11:43:15.969Z,17.75
2023-04-10T11:48:26.356Z,18.38
2023-04-10T11:53:34.836Z,18.56
2023-04-10T11:58:44.602Z,18.06
2023-04-10T12:03:54.551Z,18.31
2023-04-10T12:09:02.852Z,18.5
2023-04-10T12:14:13.235Z,18.38
2023-04-10T12:19:23.702Z,18.19
2023-04-10T12:24:34.070Z,18.56
2023-04-10T12:29:44.439Z,19.12
2023-04-10T12:34:54.853Z,18.62
2023-04-10T12:40:03.325Z,19.06
2023-04-10T12:45:13.096Z,19.06
2023-04-10T12:50:21.640Z,18.81
2023-04-10T12:55:30.061Z,18.75
2023-04-10T13:00:40.456Z,19.25
2023-04-10T13:05:49.582Z,19.62
2023-04-10T13:10:59.302Z,19.19
2023-04-10T13:16:08.587Z,19.5
2023-04-10T13:21:18.197Z,19.31
2023-04-10T13:26:27.959Z,18.88
2023-04-10T13:31:37.863Z,18.5
2023-04-10T13:36:47.549Z,18.25
2023-04-10T13:41:57.242Z,18.25
2023-04-10T13:47:07.159Z,18.38
2023-04-10T13:52:16.137Z,18.94
2023-04-10T13:57:25.901Z,18.81
2023-04-10T14:02:35.851Z,19
2023-04-10T14:07:44.784Z,18.88
2023-04-10T14:12:55.165Z,18.44
2023-04-10T14:18:04.995Z,18.31
2023-04-10T14:23:14.680Z,18.38
2023-04-10T14:28:23.813Z,18.19
2023-04-10T14:33:35.573Z,18.25
2023-04-10T14:38:44.659Z,18.19
2023-04-10T14:43:54.133Z,18
2023-04-10T14:49:04.501Z,17.81
2023-04-10T14:54:13.241Z,17.88
2023-04-10T14:59:23.336Z,17.69
2023-04-10T15:04:33.026Z,17.5
2023-04-10T15:09:42.536Z,17.44
2023-04-10T15:14:52.285Z,17.19
2023-04-10T15:20:02.690Z,17.06
2023-04-10T15:25:11.804Z,16.94
2023-04-10T15:30:21.601Z,16.94
2023-04-10T15:35:31.384Z,16.88
2023-04-10T15:40:41.720Z,16.88
2023-04-10T15:45:50.953Z,16.88
2023-04-10T15:51:00.614Z,16.88
2023-04-10T15:56:09.083Z,16.81
2023-04-10T16:01:17.672Z,16.81
2023-04-10T16:06:27.972Z,16.81
2023-04-10T16:11:37.713Z,16.88
2023-04-10T16:16:47.556Z,17.06
2023-04-10T16:21:56.604Z,17.12
2023-04-10T16:27:05.732Z,17.31
2023-04-10T16:32:14.840Z,17.38
2023-04-10T16:37:23.893Z,17.19
2023-04-10T16:42:33.097Z,17.19
2023-04-10T16:47:42.871Z,17
2023-04-10T16:52:52.644Z,16.94
2023-04-10T16:58:02.365Z,16.88
2023-04-10T17:03:11.562Z,16.81
2023-04-10T17:08:19.973Z,16.75
2023-04-10T17:13:29.729Z,16.62
2023-04-10T17:18:39.475Z,16.5
2023-04-10T17:23:48.602Z,16.25
2023-04-10T17:28:57.735Z,16.06
2023-04-10T17:34:08.126Z,15.94
2023-04-10T17:39:17.258Z,15.75
2023-04-10T17:44:25.718Z,15.56
2023-04-10T17:49:34.212Z,15.44
2023-04-10T17:54:43.986Z,15.19
2023-04-10T17:59:53.722Z,14.62
2023-04-10T18:05:04.134Z,14.56
2023-04-10T18:10:12.608Z,14.56
2023-04-10T18:15:21.717Z,14.56
2023-04-10T18:20:31.498Z,14.5
2023-04-10T18:25:41.242Z,14.25
2023-04-10T18:30:51.076Z,13.88
2023-04-10T18:36:00.822Z,13.56
2023-04-10T18:41:09.897Z,13.38
2023-04-10T18:46:19.709Z,13.06
2023-04-10T18:51:28.786Z,12.81
2023-04-10T18:56:38.535Z,12.94
2023-04-10T19:01:48.481Z,12.81
2023-04-10T19:06:56.782Z,12.88
2023-04-10T19:12:05.238Z,12.81
2023-04-10T19:17:14.359Z,12.75
2023-04-10T19:22:24.145Z,12.88
2023-04-10T19:27:35.804Z,12.62
2023-04-10T19:32:43.764Z,12.31
2023-04-10T19:37:52.757Z,12.19
2023-04-10T19:43:02.520Z,12.06
2023-04-10T19:48:12.282Z,12
2023-04-10T19:53:20.783Z,11.94
2023-04-10T19:58:55.797Z,11.75
2023-04-10T20:03:41.775Z,11.69
2023-04-10T20:08:52.277Z,11.25
2023-04-10T20:14:01.095Z,10.88
2023-04-10T20:19:10.196Z,10.88
2023-04-10T20:24:20.592Z,10.75
2023-04-10T20:29:29.715Z,10.62
2023-04-10T20:34:38.208Z,10.5
2023-04-10T20:39:47.335Z,10.5
2023-04-10T20:44:55.793Z,10.44
2023-04-10T20:50:05.553Z,10.31
2023-04-10T20:55:15.311Z,10.19
2023-04-10T21:00:24.437Z,10.06
2023-04-10T21:05:34.221Z,10
2023-04-10T21:10:44.038Z,9.94
2023-04-10T21:15:53.716Z,9.81
2023-04-10T21:21:02.203Z,9.81
2023-04-10T21:26:11.333Z,9.75
2023-04-10T21:31:20.577Z,9.75
2023-04-10T21:36:29.560Z,9.62
2023-04-10T21:41:38.703Z,9.62
2023-04-10T21:46:47.198Z,9.56
2023-04-10T21:51:55.644Z,9.56
2023-04-10T21:57:06.141Z,9.5
2023-04-10T22:02:15.227Z,9.44
2023-04-10T22:07:25.571Z,9.31
2023-04-10T22:12:35.328Z,9.31
2023-04-10T22:17:43.983Z,9.31
2023-04-10T22:22:52.309Z,9.25
2023-04-10T22:28:02.048Z,9.19
2023-04-10T22:33:10.565Z,9.12
2023-04-10T22:38:19.003Z,9.19
2023-04-10T22:43:28.117Z,9.19
2023-04-10T22:48:38.684Z,9.19
2023-04-10T22:53:48.275Z,9.19
2023-04-10T22:58:57.557Z,9.12
2023-04-10T23:04:06.575Z,8.94
2023-04-10T23:09:15.671Z,8.88
2023-04-10T23:14:24.777Z,8.81
2023-04-10T23:19:33.889Z,8.94
2023-04-10T23:24:42.372Z,8.94
2023-04-10T23:29:52.187Z,9.06
2023-04-10T23:35:02.539Z,9.06
2023-04-10T23:40:11.011Z,9.12
2023-04-10T23:45:20.769Z,9.19
2023-04-10T23:50:29.263Z,9.12
2023-04-10T23:55:39.642Z,9.19
